首页
METAR-TAF:

METAR-TAF

机场 :

阿道弗·苏亚雷斯马德里-巴拉哈斯机场

马德里, 西班牙

纬度: 40-27N, 经度: 003-33W, 海拔: 609米

当前天气观测

该预报发布于22分钟前的23:30 UTC
风速1节,风向
温度 14°C
湿度 94%
气压 1022 hPa
能见度10公里或以上
1500米以下无云,无积雨云

METAR: LEMD 212330Z 19001KT CAVOK 14/13 Q1022 NOSIG

时间: 01:52 (23:52 UTC)

预报

该预报发布于52分钟前的23:00 UTC
预报有效从22日的 00点(UTC)到 23日的 06点(UTC)
风速3节,风向多变
能见度10公里或以上
1500米以下无云,无积雨云
短暂存在
从 22日的 12点(UTC)到 22日的 24点(UTC)
风速10节,风向东北

TAF: LEMD 212300Z 2200/2306 VRB03KT CAVOK TX23/2214Z TN11/2207Z TEMPO 2212/2224 04010KT

超过4000个机场的气象观测和天气预报(METAR&TAF报告)。

可查询的气象台以黄色和红色小点在地图上表示。

将鼠标移到小点上方,可查看气象台名称。

然后点击查看天气观测和预报。

如需切换地图:点击带黑十字的绿色按钮放大地图;点击带横线的绿色按钮缩小地图;或者点击绿色箭头查看邻近地区的地图。


METAR-TAF: